createdAt,value
2023-03-20T00:01:20.130Z,21.55
2023-03-20T00:03:46.893Z,21.48
2023-03-20T00:06:20.183Z,22.30
2023-03-20T00:08:48.704Z,20.95
2023-03-20T00:11:31.150Z,21.92
2023-03-20T00:14:00.877Z,22.33
2023-03-20T00:16:34.563Z,23.08
2023-03-20T00:19:01.934Z,23.08
2023-03-20T00:21:28.729Z,23.10
2023-03-20T00:23:56.650Z,23.48
2023-03-20T00:26:35.485Z,25.05
2023-03-20T00:29:04.179Z,23.17
2023-03-20T00:31:35.420Z,24.83
2023-03-20T00:34:10.190Z,23.88
2023-03-20T00:36:36.731Z,23.17
2023-03-20T00:39:04.651Z,24.75
2023-03-20T00:41:36.658Z,24.27
2023-03-20T00:44:12.680Z,24.08
2023-03-20T00:46:39.791Z,23.20
2023-03-20T00:49:06.452Z,24.38
2023-03-20T00:51:33.007Z,23.75
2023-03-20T00:53:59.641Z,24.13
2023-03-20T00:56:33.983Z,23.58
2023-03-20T00:59:04.314Z,23.30
2023-03-20T01:01:32.148Z,21.65
2023-03-20T01:03:59.818Z,20.75
2023-03-20T01:06:26.404Z,23.23
2023-03-20T01:08:52.930Z,21.42
2023-03-20T01:11:23.305Z,21.85
2023-03-20T01:13:52.279Z,21.23
2023-03-20T01:16:23.095Z,21.73
2023-03-20T01:18:50.529Z,22.98
2023-03-20T01:21:18.485Z,23.73
2023-03-20T01:23:45.134Z,21.17
2023-03-20T01:26:51.800Z,22.98
2023-03-20T01:29:21.823Z,22.17
2023-03-20T01:31:49.523Z,21.95
2023-03-20T01:34:19.222Z,23.45
2023-03-20T01:36:52.964Z,22.67
2023-03-20T01:39:21.895Z,21.05
2023-03-20T01:41:49.671Z,20.50
2023-03-20T01:44:22.100Z,22.05
2023-03-20T01:46:49.986Z,22.75
2023-03-20T01:49:19.407Z,22.70
2023-03-20T01:51:49.755Z,22.17
2023-03-20T01:54:38.000Z,21.23
2023-03-20T01:57:16.648Z,22.35
2023-03-20T02:00:04.098Z,23.13
2023-03-20T02:02:32.001Z,22.35
2023-03-20T02:05:07.168Z,23.13
2023-03-20T02:07:34.948Z,25.35
2023-03-20T02:10:03.887Z,26.00
2023-03-20T02:12:31.535Z,23.67
2023-03-20T02:14:58.601Z,24.50
2023-03-20T02:17:25.025Z,25.55
2023-03-20T02:20:06.293Z,23.38
2023-03-20T02:22:51.418Z,25.23
2023-03-20T02:25:55.133Z,26.08
2023-03-20T02:31:54.221Z,22.90
2023-03-20T02:34:35.920Z,24.58
2023-03-20T02:37:30.262Z,25.58
2023-03-20T02:40:10.796Z,26.92
2023-03-20T02:42:51.120Z,26.80
2023-03-20T02:45:26.562Z,27.52
2023-03-20T02:48:17.943Z,27.00
2023-03-20T02:50:53.860Z,27.83
2023-03-20T02:53:41.836Z,27.90
2023-03-20T02:56:11.489Z,27.27
2023-03-20T02:58:59.318Z,28.25
2023-03-20T03:01:33.108Z,29.10
2023-03-20T03:04:25.227Z,27.95
2023-03-20T03:06:55.683Z,26.63
2023-03-20T03:09:31.108Z,27.17
2023-03-20T03:12:05.408Z,27.02
2023-03-20T03:14:42.820Z,26.13
2023-03-20T03:17:10.913Z,26.30
2023-03-20T03:19:41.628Z,25.88
2023-03-20T03:22:08.342Z,25.27
2023-03-20T03:24:43.096Z,24.95
2023-03-20T03:27:21.261Z,24.88
2023-03-20T03:29:53.850Z,23.92
2023-03-20T03:32:29.557Z,24.30
2023-03-20T03:34:57.276Z,22.23
2023-03-20T03:37:39.317Z,21.27
2023-03-20T03:40:46.029Z,23.42
2023-03-20T03:43:23.869Z,20.83
2023-03-20T03:45:57.861Z,22.13
2023-03-20T03:48:30.564Z,21.73
2023-03-20T03:51:02.494Z,18.58
2023-03-20T03:53:36.462Z,17.75
2023-03-20T03:56:07.875Z,17.27
2023-03-20T03:58:42.873Z,14.63
2023-03-20T04:01:14.308Z,15.43
2023-03-20T04:04:06.126Z,15.43
2023-03-20T04:06:33.376Z,11.90
2023-03-20T04:08:59.687Z,11.85
2023-03-20T04:11:29.023Z,11.18
2023-03-20T04:13:55.797Z,12.15
2023-03-20T04:16:24.358Z,13.02
2023-03-20T04:18:51.546Z,13.45
2023-03-20T04:21:18.660Z,13.23
2023-03-20T04:23:45.342Z,11.43
2023-03-20T04:26:11.946Z,11.05
2023-03-20T04:28:38.301Z,10.95
2023-03-20T04:31:04.786Z,11.18
2023-03-20T04:33:31.114Z,12.32
2023-03-20T04:35:57.478Z,11.30
2023-03-20T04:38:24.404Z,11.93
2023-03-20T04:40:51.027Z,11.02
2023-03-20T04:43:17.646Z,11.77
2023-03-20T04:45:44.131Z,11.13
2023-03-20T04:48:10.862Z,11.80
2023-03-20T04:50:37.290Z,12.00
2023-03-20T04:53:03.788Z,12.40
2023-03-20T04:55:30.216Z,11.50
2023-03-20T04:57:56.555Z,11.13
2023-03-20T05:00:23.211Z,12.55
2023-03-20T05:02:49.539Z,12.52
2023-03-20T05:05:15.878Z,12.80
2023-03-20T05:07:42.184Z,12.35
2023-03-20T05:10:09.250Z,12.60
2023-03-20T05:12:35.754Z,12.75
2023-03-20T05:15:02.161Z,11.82
2023-03-20T05:17:28.477Z,11.82
2023-03-20T05:19:54.801Z,12.60
2023-03-20T05:22:21.135Z,12.05
2023-03-20T05:24:47.517Z,12.73
2023-03-20T05:27:13.893Z,12.75
2023-03-20T05:29:40.295Z,12.25
2023-03-20T05:32:06.745Z,12.80
2023-03-20T05:34:33.093Z,12.00
2023-03-20T05:36:59.510Z,13.43
2023-03-20T05:39:26.021Z,13.30
2023-03-20T05:41:52.372Z,12.55
2023-03-20T05:44:18.711Z,12.73
2023-03-20T05:46:45.177Z,13.00
2023-03-20T05:49:11.531Z,13.38
2023-03-20T05:51:38.095Z,12.88
2023-03-20T05:54:04.894Z,13.05
2023-03-20T05:56:31.435Z,12.90
2023-03-20T05:58:57.764Z,12.52
2023-03-20T06:01:24.153Z,13.27
2023-03-20T06:03:50.840Z,13.48
2023-03-20T06:06:17.797Z,13.35
2023-03-20T06:08:44.306Z,14.55
2023-03-20T06:11:12.011Z,13.50
2023-03-20T06:13:38.384Z,14.27
2023-03-20T06:16:05.167Z,14.02
2023-03-20T06:18:31.571Z,13.25
2023-03-20T06:20:58.096Z,14.15
2023-03-20T06:23:24.474Z,13.07
2023-03-20T06:25:51.235Z,14.20
2023-03-20T06:28:17.640Z,14.25
2023-03-20T06:30:44.482Z,12.98
2023-03-20T06:33:10.912Z,14.13
2023-03-20T06:35:37.536Z,14.70
2023-03-20T06:38:04.065Z,14.55
2023-03-20T06:40:30.530Z,15.23
2023-03-20T06:42:56.999Z,14.65
2023-03-20T06:45:25.963Z,15.50
2023-03-20T06:47:52.411Z,15.18
2023-03-20T06:50:18.860Z,15.43
2023-03-20T06:52:45.249Z,16.48
2023-03-20T06:55:11.799Z,14.93
2023-03-20T06:57:38.541Z,15.40
2023-03-20T07:00:06.290Z,15.30
2023-03-20T07:02:33.268Z,14.98
2023-03-20T07:04:59.645Z,15.18
2023-03-20T07:07:25.993Z,14.35
2023-03-20T07:09:52.316Z,14.43
2023-03-20T07:12:22.872Z,13.45
2023-03-20T07:14:49.850Z,12.05
2023-03-20T07:17:16.596Z,11.65
2023-03-20T07:19:42.933Z,12.95
2023-03-20T07:22:18.404Z,13.55
2023-03-20T07:24:47.197Z,12.02
2023-03-20T07:27:13.745Z,10.88
2023-03-20T07:29:40.067Z,9.93
2023-03-20T07:32:06.479Z,9.55
2023-03-20T07:34:32.799Z,9.48
2023-03-20T07:36:59.301Z,8.48
2023-03-20T07:39:25.816Z,8.52
2023-03-20T07:41:52.285Z,8.18
2023-03-20T07:44:19.405Z,8.27
2023-03-20T07:46:49.113Z,9.18
2023-03-20T07:49:18.350Z,9.13
2023-03-20T07:51:49.137Z,9.52
2023-03-20T07:54:16.126Z,8.15
2023-03-20T07:56:45.269Z,8.23
2023-03-20T07:59:12.720Z,7.60
2023-03-20T08:01:44.238Z,7.88
2023-03-20T08:08:02.314Z,6.85
2023-03-20T08:10:29.021Z,7.10
2023-03-20T08:12:56.187Z,6.55
2023-03-20T08:15:22.722Z,6.72
2023-03-20T08:17:49.720Z,6.90
2023-03-20T08:20:17.383Z,7.47
2023-03-20T08:22:47.131Z,7.00
2023-03-20T08:25:13.643Z,7.30
2023-03-20T08:27:40.176Z,7.63
2023-03-20T08:30:07.477Z,7.15
2023-03-20T08:32:34.049Z,7.47
2023-03-20T08:35:00.739Z,6.85
2023-03-20T08:37:27.794Z,7.15
2023-03-20T08:39:57.079Z,7.28
2023-03-20T08:42:23.637Z,7.38
2023-03-20T08:44:50.568Z,7.07
2023-03-20T08:47:17.180Z,7.60
2023-03-20T08:49:43.756Z,7.00
2023-03-20T08:52:10.331Z,7.75
2023-03-20T08:54:36.879Z,8.25
2023-03-20T08:57:03.460Z,7.18
2023-03-20T08:59:29.932Z,7.82
2023-03-20T09:01:56.438Z,7.45
2023-03-20T09:04:23.046Z,7.78
2023-03-20T09:06:50.520Z,7.50
2023-03-20T09:09:19.883Z,7.65
2023-03-20T09:11:46.488Z,8.00
2023-03-20T09:14:13.078Z,7.68
2023-03-20T09:16:39.642Z,7.00
2023-03-20T09:19:06.560Z,7.60
2023-03-20T09:21:33.018Z,6.57
2023-03-20T09:23:59.542Z,6.13
2023-03-20T09:26:25.941Z,6.35
2023-03-20T09:28:52.403Z,6.30
2023-03-20T09:31:18.906Z,6.88
2023-03-20T09:33:45.657Z,6.20
2023-03-20T09:36:12.348Z,6.03
2023-03-20T09:38:41.845Z,5.57
2023-03-20T09:41:18.685Z,5.55
2023-03-20T09:43:45.427Z,6.25
2023-03-20T09:46:38.718Z,5.20
2023-03-20T09:49:23.364Z,5.32
2023-03-20T09:52:08.071Z,5.65
2023-03-20T09:54:53.619Z,5.43
2023-03-20T09:57:35.283Z,5.30
2023-03-20T10:00:07.875Z,5.57
2023-03-20T10:02:50.079Z,5.47
2023-03-20T10:05:31.709Z,5.18
2023-03-20T10:08:01.910Z,5.55
2023-03-20T10:11:16.260Z,5.32
2023-03-20T10:13:58.532Z,5.88
2023-03-20T10:16:53.203Z,5.15
2023-03-20T10:19:29.839Z,5.05
2023-03-20T10:22:02.788Z,5.00
2023-03-20T10:24:44.377Z,5.25
2023-03-20T10:27:34.139Z,4.72
2023-03-20T10:30:25.937Z,4.50
2023-03-20T10:33:26.756Z,4.45
2023-03-20T10:36:22.459Z,4.13
2023-03-20T10:39:12.707Z,4.00
2023-03-20T10:41:43.163Z,4.18
2023-03-20T10:44:17.069Z,4.53
2023-03-20T10:46:51.610Z,4.15
2023-03-20T10:49:36.468Z,3.80
2023-03-20T10:52:09.696Z,4.25
2023-03-20T10:54:43.565Z,4.07
2023-03-20T10:57:24.882Z,3.63
2023-03-20T10:59:52.480Z,3.50
2023-03-20T11:02:23.235Z,3.38
2023-03-20T11:04:50.446Z,3.95
2023-03-20T11:07:32.704Z,3.90
2023-03-20T11:10:05.073Z,3.10
2023-03-20T11:12:37.644Z,3.70
2023-03-20T11:15:19.309Z,3.53
2023-03-20T11:17:57.847Z,3.55
2023-03-20T11:20:26.738Z,4.00
2023-03-20T11:23:18.118Z,3.17
2023-03-20T11:26:04.057Z,2.90
2023-03-20T11:28:42.364Z,3.05
2023-03-20T11:31:19.803Z,3.33
2023-03-20T11:33:52.628Z,3.20
2023-03-20T11:36:25.326Z,3.20
2023-03-20T11:38:58.561Z,2.92
2023-03-20T11:41:28.129Z,3.35
2023-03-20T11:43:55.260Z,3.72
2023-03-20T11:46:24.416Z,3.40
2023-03-20T11:49:17.346Z,3.42
2023-03-20T11:51:43.957Z,2.80
2023-03-20T11:54:17.572Z,3.35
2023-03-20T11:57:00.728Z,3.03
2023-03-20T11:59:34.074Z,2.95
2023-03-20T12:02:03.025Z,3.15
2023-03-20T12:04:37.749Z,2.58
2023-03-20T12:07:13.126Z,2.95
2023-03-20T12:09:48.605Z,2.65
2023-03-20T12:12:36.928Z,3.40
2023-03-20T12:15:12.732Z,2.63
2023-03-20T12:18:03.348Z,2.90
2023-03-20T12:21:04.052Z,2.80
2023-03-20T12:23:39.865Z,2.58
2023-03-20T12:26:15.536Z,3.10
2023-03-20T12:28:52.123Z,3.42
2023-03-20T12:31:24.866Z,2.60
2023-03-20T12:33:51.425Z,2.78
2023-03-20T12:36:27.670Z,2.42
2023-03-20T12:38:54.144Z,3.28
2023-03-20T12:41:48.929Z,2.60
2023-03-20T12:44:21.940Z,2.95
2023-03-20T12:49:37.918Z,3.03
2023-03-20T12:52:44.881Z,2.85
2023-03-20T12:55:25.761Z,3.33
2023-03-20T12:58:07.166Z,2.78
2023-03-20T13:00:49.644Z,2.75
2023-03-20T13:03:34.254Z,2.70
2023-03-20T13:06:36.682Z,3.20
2023-03-20T13:09:23.049Z,2.85
2023-03-20T13:12:08.755Z,2.92
2023-03-20T13:14:44.369Z,3.25
2023-03-20T13:17:33.748Z,3.30
2023-03-20T13:20:06.468Z,3.15
2023-03-20T13:22:48.599Z,3.28
2023-03-20T13:25:32.198Z,3.20
2023-03-20T13:28:04.437Z,2.53
2023-03-20T13:30:44.802Z,3.15
2023-03-20T13:33:45.134Z,3.05
2023-03-20T13:39:22.187Z,2.35
2023-03-20T13:41:49.492Z,2.53
2023-03-20T13:44:20.884Z,2.35
2023-03-20T13:46:55.254Z,2.72
2023-03-20T13:49:48.078Z,2.60
2023-03-20T13:52:19.212Z,2.60
2023-03-20T13:54:53.608Z,2.30
2023-03-20T13:58:20.340Z,2.80
2023-03-20T14:00:56.131Z,2.70
2023-03-20T14:03:30.836Z,2.95
2023-03-20T14:05:57.427Z,2.90
2023-03-20T14:08:26.776Z,2.40
2023-03-20T14:11:07.735Z,2.50
2023-03-20T14:13:35.383Z,2.20
2023-03-20T14:16:07.441Z,2.75
2023-03-20T14:18:34.040Z,2.78
2023-03-20T14:21:02.401Z,2.78
2023-03-20T14:23:34.950Z,3.15
2023-03-20T14:26:05.933Z,3.80
2023-03-20T14:28:44.545Z,3.03
2023-03-20T14:31:23.097Z,3.15
2023-03-20T14:34:12.485Z,2.85
2023-03-20T14:36:59.577Z,2.80
2023-03-20T14:39:41.264Z,3.08
2023-03-20T14:42:35.325Z,3.22
2023-03-20T14:45:14.023Z,3.13
2023-03-20T14:48:01.815Z,3.10
2023-03-20T14:50:46.477Z,3.90
2023-03-20T14:53:19.329Z,3.22
2023-03-20T14:56:05.575Z,3.50
2023-03-20T14:58:37.791Z,3.50
2023-03-20T15:01:06.628Z,3.30
2023-03-20T15:03:33.496Z,4.47
2023-03-20T15:06:04.520Z,3.80
2023-03-20T15:08:37.346Z,4.70
2023-03-20T15:11:08.758Z,3.10
2023-03-20T15:13:37.566Z,3.28
2023-03-20T15:16:06.978Z,3.90
2023-03-20T15:18:39.133Z,3.50
2023-03-20T15:21:13.289Z,3.60
2023-03-20T15:23:42.583Z,3.95
2023-03-20T15:26:09.098Z,3.05
2023-03-20T15:28:37.951Z,3.85
2023-03-20T15:31:06.358Z,4.18
2023-03-20T15:33:36.558Z,3.35
2023-03-20T15:36:15.998Z,3.70
2023-03-20T15:38:44.223Z,3.70
2023-03-20T15:41:31.993Z,3.90
2023-03-20T15:44:20.628Z,3.58
2023-03-20T15:47:03.360Z,3.60
2023-03-20T15:49:32.406Z,3.33
2023-03-20T15:52:03.038Z,3.75
2023-03-20T15:54:29.583Z,3.80
2023-03-20T15:57:00.646Z,3.67
2023-03-20T15:59:31.396Z,3.20
2023-03-20T16:01:59.459Z,3.40
2023-03-20T16:04:26.959Z,4.00
2023-03-20T16:06:56.220Z,3.97
2023-03-20T16:09:23.384Z,3.45
2023-03-20T16:11:59.651Z,3.15
2023-03-20T16:14:33.498Z,2.97
2023-03-20T16:17:02.820Z,2.97
2023-03-20T16:19:29.747Z,2.97
2023-03-20T16:21:59.552Z,3.20
2023-03-20T16:24:31.230Z,3.40
2023-03-20T16:26:58.400Z,3.22
2023-03-20T16:29:28.122Z,3.03
2023-03-20T16:32:03.854Z,3.67
2023-03-20T16:34:38.611Z,2.75
2023-03-20T16:37:32.576Z,3.53
2023-03-20T16:40:18.088Z,3.40
2023-03-20T16:42:45.553Z,3.22
2023-03-20T16:45:22.068Z,3.40
2023-03-20T16:47:49.549Z,3.88
2023-03-20T16:50:19.109Z,3.97
2023-03-20T16:53:14.168Z,4.22
2023-03-20T16:55:51.291Z,3.65
2023-03-20T16:58:21.961Z,5.03
2023-03-20T17:00:57.511Z,3.90
2023-03-20T17:03:30.399Z,4.57
2023-03-20T17:05:59.673Z,4.43
2023-03-20T17:08:40.059Z,4.72
2023-03-20T17:11:12.962Z,5.40
2023-03-20T17:13:41.181Z,5.65
2023-03-20T17:16:13.689Z,6.38
2023-03-20T17:18:40.496Z,6.93
2023-03-20T17:21:07.096Z,6.82
2023-03-20T17:23:33.444Z,6.47
2023-03-20T17:25:59.787Z,6.05
2023-03-20T17:28:33.797Z,6.38
2023-03-20T17:31:05.007Z,6.15
2023-03-20T17:33:33.205Z,6.13
2023-03-20T17:36:00.797Z,5.78
2023-03-20T17:38:27.614Z,6.10
2023-03-20T17:40:54.060Z,6.05
2023-03-20T17:43:20.881Z,6.75
2023-03-20T17:45:47.772Z,5.90
2023-03-20T17:48:17.992Z,6.43
2023-03-20T17:50:45.798Z,6.43
2023-03-20T17:53:28.747Z,6.32
2023-03-20T17:55:55.242Z,6.53
2023-03-20T17:58:23.309Z,7.07
2023-03-20T18:00:54.748Z,7.65
2023-03-20T18:03:21.652Z,6.82
2023-03-20T18:05:50.535Z,6.93
2023-03-20T18:08:21.318Z,7.15
2023-03-20T18:10:49.665Z,7.70
2023-03-20T18:13:20.751Z,7.15
2023-03-20T18:15:51.523Z,7.45
2023-03-20T18:18:23.719Z,7.97
2023-03-20T18:20:52.269Z,7.70
2023-03-20T18:23:18.739Z,7.43
2023-03-20T18:25:45.188Z,8.45
2023-03-20T18:28:18.379Z,8.07
2023-03-20T18:30:45.985Z,8.52
2023-03-20T18:33:12.426Z,7.82
2023-03-20T18:35:38.874Z,7.93
2023-03-20T18:38:05.578Z,8.15
2023-03-20T18:40:34.474Z,9.45
2023-03-20T18:43:01.386Z,8.27
2023-03-20T18:45:29.658Z,8.32
2023-03-20T18:47:57.329Z,9.18
2023-03-20T18:50:35.057Z,8.93
2023-03-20T18:53:04.535Z,7.88
2023-03-20T18:55:31.654Z,8.45
2023-03-20T18:57:58.981Z,8.60
2023-03-20T19:00:39.829Z,8.60
2023-03-20T19:03:07.953Z,8.73
2023-03-20T19:05:34.369Z,8.02
2023-03-20T19:08:01.050Z,9.20
2023-03-20T19:10:39.309Z,9.60
2023-03-20T19:13:07.538Z,9.95
2023-03-20T19:15:37.140Z,8.93
2023-03-20T19:18:24.684Z,8.50
2023-03-20T19:20:53.200Z,8.27
2023-03-20T19:23:20.548Z,9.52
2023-03-20T19:25:49.363Z,8.77
2023-03-20T19:28:39.324Z,8.70
2023-03-20T19:31:06.873Z,9.20
2023-03-20T19:33:33.872Z,9.43
2023-03-20T19:36:03.687Z,9.00
2023-03-20T19:38:31.559Z,9.73
2023-03-20T19:40:59.279Z,9.13
2023-03-20T19:43:25.864Z,10.15
2023-03-20T19:45:57.999Z,10.07
2023-03-20T19:48:43.333Z,9.40
2023-03-20T19:51:19.948Z,9.73
2023-03-20T19:53:47.077Z,10.52
2023-03-20T19:56:15.478Z,10.02
2023-03-20T19:58:43.318Z,9.57
2023-03-20T20:01:16.019Z,11.15
2023-03-20T20:03:46.257Z,11.02
2023-03-20T20:06:13.066Z,10.68
2023-03-20T20:08:49.047Z,11.27
2023-03-20T20:11:20.590Z,10.90
2023-03-20T20:14:05.169Z,11.18
2023-03-20T20:16:35.393Z,10.32
2023-03-20T20:19:02.378Z,10.77
2023-03-20T20:24:16.365Z,10.70
2023-03-20T20:26:53.394Z,10.35
2023-03-20T20:29:21.715Z,10.13
2023-03-20T20:31:48.434Z,10.45
2023-03-20T20:39:49.834Z,10.73
2023-03-20T20:42:20.505Z,10.52
2023-03-20T20:44:47.552Z,11.15
2023-03-20T20:47:14.731Z,10.77
2023-03-20T20:49:41.495Z,11.20
2023-03-20T20:52:08.842Z,11.60
2023-03-20T20:54:35.330Z,11.55
2023-03-20T20:57:02.107Z,11.20
2023-03-20T20:59:29.451Z,11.25
2023-03-20T21:01:56.441Z,11.32
2023-03-20T21:04:23.508Z,11.18
2023-03-20T21:07:08.652Z,11.65
2023-03-20T21:09:36.678Z,11.20
2023-03-20T21:12:04.135Z,11.18
2023-03-20T21:14:30.824Z,11.23
2023-03-20T21:17:00.964Z,11.60
2023-03-20T21:19:35.405Z,11.82
2023-03-20T21:22:01.929Z,12.10
2023-03-20T21:24:33.638Z,11.57
2023-03-20T21:27:05.397Z,11.40
2023-03-20T21:29:31.958Z,11.10
2023-03-20T21:31:58.609Z,11.95
2023-03-20T21:34:26.098Z,11.63
2023-03-20T21:36:52.724Z,12.18
2023-03-20T21:39:19.398Z,11.90
2023-03-20T21:41:46.128Z,10.68
2023-03-20T21:44:17.417Z,11.38
2023-03-20T21:47:38.087Z,10.77
2023-03-20T21:50:30.836Z,11.68
2023-03-20T21:53:14.765Z,11.77
2023-03-20T21:56:08.983Z,11.00
2023-03-20T22:04:37.563Z,11.35
2023-03-20T22:12:30.257Z,10.93
2023-03-20T22:15:20.083Z,10.82
2023-03-20T22:17:55.897Z,10.55
2023-03-20T22:23:42.671Z,10.20
2023-03-20T22:26:36.394Z,10.52
2023-03-20T22:45:11.624Z,11.75
2023-03-20T22:47:38.397Z,11.00
2023-03-20T22:50:06.233Z,10.63
2023-03-20T22:52:48.128Z,11.45
2023-03-20T22:55:16.781Z,10.38
2023-03-20T22:57:52.888Z,10.68
2023-03-20T23:00:29.989Z,10.20
2023-03-20T23:03:06.665Z,9.63
2023-03-20T23:05:41.092Z,10.50
2023-03-20T23:08:08.999Z,9.98
2023-03-20T23:10:38.049Z,9.40
2023-03-20T23:13:04.733Z,9.35
2023-03-20T23:15:31.703Z,10.20
2023-03-20T23:17:58.760Z,9.65
2023-03-20T23:20:25.634Z,9.88
2023-03-20T23:22:52.152Z,10.57
2023-03-20T23:25:36.057Z,10.50
2023-03-20T23:28:04.916Z,10.05
2023-03-20T23:30:41.959Z,10.07
2023-03-20T23:33:10.847Z,10.45
2023-03-20T23:35:37.486Z,10.48
2023-03-20T23:38:03.996Z,10.32
2023-03-20T23:40:31.057Z,10.73
2023-03-20T23:42:57.629Z,10.50
2023-03-20T23:45:24.357Z,11.20
2023-03-20T23:47:51.060Z,10.90
2023-03-20T23:53:19.461Z,10.68
2023-03-20T23:55:48.326Z,11.07
2023-03-20T23:58:15.720Z,11.02
